sensor_id;sensor_type;location;lat;lon;timestamp;P1;P2;P0
24012;PMS7003;12220;50.194;18.948;2023-07-13T00:01:23;2;2;2
24012;PMS7003;12220;50.194;18.948;2023-07-13T00:03:24;1;1;1
24012;PMS7003;12220;50.194;18.948;2023-07-13T00:05:25;2;2;1
24012;PMS7003;12220;50.194;18.948;2023-07-13T00:07:28;2;2;1
24012;PMS7003;12220;50.194;18.948;2023-07-13T00:09:37;2;2;2
24012;PMS7003;12220;50.194;18.948;2023-07-13T00:11:39;2;2;1
24012;PMS7003;12220;50.194;18.948;2023-07-13T00:13:41;1;1;0
24012;PMS7003;12220;50.194;18.948;2023-07-13T00:15:43;2;2;2
24012;PMS7003;12220;50.194;18.948;2023-07-13T00:17:53;2;2;2
24012;PMS7003;12220;50.194;18.948;2023-07-13T00:19:56;4;3;2
24012;PMS7003;12220;50.194;18.948;2023-07-13T00:21:58;4;4;3
24012;PMS7003;12220;50.194;18.948;2023-07-13T00:24:00;3;3;2
24012;PMS7003;12220;50.194;18.948;2023-07-13T00:26:08;2;2;2
24012;PMS7003;12220;50.194;18.948;2023-07-13T00:28:11;1;1;1
24012;PMS7003;12220;50.194;18.948;2023-07-13T00:30:12;1;1;1
24012;PMS7003;12220;50.194;18.948;2023-07-13T00:32:14;2;2;2
24012;PMS7003;12220;50.194;18.948;2023-07-13T00:34:22;2;2;1
24012;PMS7003;12220;50.194;18.948;2023-07-13T00:36:24;5;3;2
24012;PMS7003;12220;50.194;18.948;2023-07-13T00:38:25;1;1;0
24012;PMS7003;12220;50.194;18.948;2023-07-13T00:40:26;2;2;1
24012;PMS7003;12220;50.194;18.948;2023-07-13T00:42:37;1;1;1
24012;PMS7003;12220;50.194;18.948;2023-07-13T00:44:38;1;1;0
24012;PMS7003;12220;50.194;18.948;2023-07-13T00:46:40;2;2;2
24012;PMS7003;12220;50.194;18.948;2023-07-13T00:48:41;2;1;1
24012;PMS7003;12220;50.194;18.948;2023-07-13T00:50:52;2;2;1
24012;PMS7003;12220;50.194;18.948;2023-07-13T00:52:56;2;2;1
24012;PMS7003;12220;50.194;18.948;2023-07-13T00:54:58;2;2;2
24012;PMS7003;12220;50.194;18.948;2023-07-13T00:57:01;3;3;2
24012;PMS7003;12220;50.194;18.948;2023-07-13T00:59:06;1;1;1
24012;PMS7003;12220;50.194;18.948;2023-07-13T01:01:11;1;1;1
24012;PMS7003;12220;50.194;18.948;2023-07-13T01:03:14;2;2;2
24012;PMS7003;12220;50.194;18.948;2023-07-13T01:05:17;2;2;2
24012;PMS7003;12220;50.194;18.948;2023-07-13T01:07:21;4;2;2
24012;PMS7003;12220;50.194;18.948;2023-07-13T01:09:22;2;2;1
24012;PMS7003;12220;50.194;18.948;2023-07-13T01:11:24;2;2;1
24012;PMS7003;12220;50.194;18.948;2023-07-13T01:13:27;2;2;2
24012;PMS7003;12220;50.194;18.948;2023-07-13T01:15:40;1;1;1
24012;PMS7003;12220;50.194;18.948;2023-07-13T01:17:44;2;2;1
24012;PMS7003;12220;50.194;18.948;2023-07-13T01:19:45;2;2;2
24012;PMS7003;12220;50.194;18.948;2023-07-13T01:21:50;3;3;3
24012;PMS7003;12220;50.194;18.948;2023-07-13T01:23:52;3;3;3
24012;PMS7003;12220;50.194;18.948;2023-07-13T01:25:53;2;2;2
24012;PMS7003;12220;50.194;18.948;2023-07-13T01:27:56;2;2;2
24012;PMS7003;12220;50.194;18.948;2023-07-13T01:29:57;4;3;3
24012;PMS7003;12220;50.194;18.948;2023-07-13T01:32:06;3;3;3
24012;PMS7003;12220;50.194;18.948;2023-07-13T01:34:08;2;2;1
24012;PMS7003;12220;50.194;18.948;2023-07-13T01:36:10;4;4;2
24012;PMS7003;12220;50.194;18.948;2023-07-13T01:38:16;2;2;2
24012;PMS7003;12220;50.194;18.948;2023-07-13T01:40:20;3;3;3
24012;PMS7003;12220;50.194;18.948;2023-07-13T01:42:22;3;3;2
24012;PMS7003;12220;50.194;18.948;2023-07-13T01:44:29;4;4;3
24012;PMS7003;12220;50.194;18.948;2023-07-13T01:46:30;3;3;2
24012;PMS7003;12220;50.194;18.948;2023-07-13T01:48:35;6;3;3
24012;PMS7003;12220;50.194;18.948;2023-07-13T01:50:37;3;3;3
24012;PMS7003;12220;50.194;18.948;2023-07-13T01:52:38;4;4;4
24012;PMS7003;12220;50.194;18.948;2023-07-13T01:54:40;3;3;2
24012;PMS7003;12220;50.194;18.948;2023-07-13T01:56:50;3;3;3
24012;PMS7003;12220;50.194;18.948;2023-07-13T01:58:51;2;2;2
24012;PMS7003;12220;50.194;18.948;2023-07-13T02:00:53;5;5;4
24012;PMS7003;12220;50.194;18.948;2023-07-13T02:02:54;6;6;5
24012;PMS7003;12220;50.194;18.948;2023-07-13T02:05:05;6;3;2
24012;PMS7003;12220;50.194;18.948;2023-07-13T02:07:08;4;2;2
24012;PMS7003;12220;50.194;18.948;2023-07-13T02:09:09;3;3;3
24012;PMS7003;12220;50.194;18.948;2023-07-13T02:11:11;6;4;4
24012;PMS7003;12220;50.194;18.948;2023-07-13T02:13:20;9;4;3
24012;PMS7003;12220;50.194;18.948;2023-07-13T02:15:21;3;3;2
24012;PMS7003;12220;50.194;18.948;2023-07-13T02:17:22;4;4;4
24012;PMS7003;12220;50.194;18.948;2023-07-13T02:19:23;3;3;3
24012;PMS7003;12220;50.194;18.948;2023-07-13T02:21:34;4;4;2
24012;PMS7003;12220;50.194;18.948;2023-07-13T02:23:36;5;5;5
24012;PMS7003;12220;50.194;18.948;2023-07-13T02:25:37;5;5;4
24012;PMS7003;12220;50.194;18.948;2023-07-13T02:27:39;7;7;5
24012;PMS7003;12220;50.194;18.948;2023-07-13T02:29:49;5;5;4
24012;PMS7003;12220;50.194;18.948;2023-07-13T02:31:52;5;5;4
24012;PMS7003;12220;50.194;18.948;2023-07-13T02:33:53;7;6;5
24012;PMS7003;12220;50.194;18.948;2023-07-13T02:35:54;3;3;3
24012;PMS7003;12220;50.194;18.948;2023-07-13T02:38:04;5;5;4
24012;PMS7003;12220;50.194;18.948;2023-07-13T02:40:06;5;5;4
24012;PMS7003;12220;50.194;18.948;2023-07-13T02:42:09;6;6;4
24012;PMS7003;12220;50.194;18.948;2023-07-13T02:44:12;6;6;5
24012;PMS7003;12220;50.194;18.948;2023-07-13T02:46:19;5;5;4
24012;PMS7003;12220;50.194;18.948;2023-07-13T02:48:21;5;5;3
24012;PMS7003;12220;50.194;18.948;2023-07-13T02:50:22;7;6;5
24012;PMS7003;12220;50.194;18.948;2023-07-13T02:52:24;8;7;6
24012;PMS7003;12220;50.194;18.948;2023-07-13T02:54:34;6;6;5
24012;PMS7003;12220;50.194;18.948;2023-07-13T02:56:35;6;6;5
24012;PMS7003;12220;50.194;18.948;2023-07-13T02:58:39;3;3;3
24012;PMS7003;12220;50.194;18.948;2023-07-13T03:00:42;5;5;4
24012;PMS7003;12220;50.194;18.948;2023-07-13T03:02:48;7;5;4
24012;PMS7003;12220;50.194;18.948;2023-07-13T03:04:50;3;3;2
24012;PMS7003;12220;50.194;18.948;2023-07-13T03:06:51;4;4;2
24012;PMS7003;12220;50.194;18.948;2023-07-13T03:08:53;3;3;2
24012;PMS7003;12220;50.194;18.948;2023-07-13T03:11:05;4;4;3
24012;PMS7003;12220;50.194;18.948;2023-07-13T03:13:08;4;4;2
24012;PMS7003;12220;50.194;18.948;2023-07-13T03:15:10;2;2;2
24012;PMS7003;12220;50.194;18.948;2023-07-13T03:17:11;6;4;3
24012;PMS7003;12220;50.194;18.948;2023-07-13T03:19:18;6;4;3
24012;PMS7003;12220;50.194;18.948;2023-07-13T03:21:20;4;4;4
24012;PMS7003;12220;50.194;18.948;2023-07-13T03:23:21;3;3;2
24012;PMS7003;12220;50.194;18.948;2023-07-13T03:25:23;1;1;1
24012;PMS7003;12220;50.194;18.948;2023-07-13T03:27:33;3;0;0
24012;PMS7003;12220;50.194;18.948;2023-07-13T03:29:34;3;3;3
24012;PMS7003;12220;50.194;18.948;2023-07-13T03:31:36;4;4;3
24012;PMS7003;12220;50.194;18.948;2023-07-13T03:33:38;4;4;3
24012;PMS7003;12220;50.194;18.948;2023-07-13T03:35:48;2;2;1
24012;PMS7003;12220;50.194;18.948;2023-07-13T03:37:49;4;4;3
24012;PMS7003;12220;50.194;18.948;2023-07-13T03:39:52;3;3;3
24012;PMS7003;12220;50.194;18.948;2023-07-13T03:41:53;3;3;2
24012;PMS7003;12220;50.194;18.948;2023-07-13T03:44:03;3;3;3
24012;PMS7003;12220;50.194;18.948;2023-07-13T03:46:04;1;1;1
24012;PMS7003;12220;50.194;18.948;2023-07-13T03:48:06;3;3;3
24012;PMS7003;12220;50.194;18.948;2023-07-13T03:50:07;4;4;3
24012;PMS7003;12220;50.194;18.948;2023-07-13T03:52:17;3;3;3
24012;PMS7003;12220;50.194;18.948;2023-07-13T03:54:19;4;3;2
24012;PMS7003;12220;50.194;18.948;2023-07-13T03:56:20;3;3;3
24012;PMS7003;12220;50.194;18.948;2023-07-13T04:00:35;4;4;4
24012;PMS7003;12220;50.194;18.948;2023-07-13T04:02:36;2;2;2
24012;PMS7003;12220;50.194;18.948;2023-07-13T04:04:38;5;4;3
24012;PMS7003;12220;50.194;18.948;2023-07-13T04:06:41;5;4;3
24012;PMS7003;12220;50.194;18.948;2023-07-13T04:08:48;4;4;3
24012;PMS7003;12220;50.194;18.948;2023-07-13T04:10:51;3;3;2
24012;PMS7003;12220;50.194;18.948;2023-07-13T04:12:52;4;4;3
24012;PMS7003;12220;50.194;18.948;2023-07-13T04:14:53;4;3;3
24012;PMS7003;12220;50.194;18.948;2023-07-13T04:17:02;4;4;3
24012;PMS7003;12220;50.194;18.948;2023-07-13T04:19:03;3;3;3
24012;PMS7003;12220;50.194;18.948;2023-07-13T04:21:05;5;5;5
24012;PMS7003;12220;50.194;18.948;2023-07-13T04:23:06;3;3;2
24012;PMS7003;12220;50.194;18.948;2023-07-13T04:25:17;5;4;4
24012;PMS7003;12220;50.194;18.948;2023-07-13T04:27:18;4;3;3
24012;PMS7003;12220;50.194;18.948;2023-07-13T04:29:19;5;5;4
24012;PMS7003;12220;50.194;18.948;2023-07-13T04:31:21;2;2;2
24012;PMS7003;12220;50.194;18.948;2023-07-13T04:33:31;5;5;4
24012;PMS7003;12220;50.194;18.948;2023-07-13T04:35:34;4;4;4
24012;PMS7003;12220;50.194;18.948;2023-07-13T04:37:36;3;3;2
24012;PMS7003;12220;50.194;18.948;2023-07-13T04:39:40;4;4;4
24012;PMS7003;12220;50.194;18.948;2023-07-13T04:41:46;3;3;2
24012;PMS7003;12220;50.194;18.948;2023-07-13T04:43:48;4;4;3
24012;PMS7003;12220;50.194;18.948;2023-07-13T04:45:50;5;5;5
24012;PMS7003;12220;50.194;18.948;2023-07-13T04:47:52;4;4;4
24012;PMS7003;12220;50.194;18.948;2023-07-13T04:50:01;6;6;5
24012;PMS7003;12220;50.194;18.948;2023-07-13T04:52:03;4;4;4
24012;PMS7003;12220;50.194;18.948;2023-07-13T04:54:05;3;3;3
24012;PMS7003;12220;50.194;18.948;2023-07-13T04:56:08;4;4;3
24012;PMS7003;12220;50.194;18.948;2023-07-13T04:58:16;5;5;5
24012;PMS7003;12220;50.194;18.948;2023-07-13T05:00:18;6;4;3
24012;PMS7003;12220;50.194;18.948;2023-07-13T05:02:20;5;5;4
24012;PMS7003;12220;50.194;18.948;2023-07-13T05:04:22;4;4;3
24012;PMS7003;12220;50.194;18.948;2023-07-13T05:06:31;4;4;3
24012;PMS7003;12220;50.194;18.948;2023-07-13T05:08:32;4;4;4
24012;PMS7003;12220;50.194;18.948;2023-07-13T05:10:37;6;6;5
24012;PMS7003;12220;50.194;18.948;2023-07-13T05:12:38;6;6;5
24012;PMS7003;12220;50.194;18.948;2023-07-13T05:14:46;4;4;3
24012;PMS7003;12220;50.194;18.948;2023-07-13T05:16:49;4;4;4
24012;PMS7003;12220;50.194;18.948;2023-07-13T05:18:50;2;2;2
24012;PMS7003;12220;50.194;18.948;2023-07-13T05:23:00;5;4;4
24012;PMS7003;12220;50.194;18.948;2023-07-13T05:25:04;6;6;4
24012;PMS7003;12220;50.194;18.948;2023-07-13T05:27:07;6;5;4
24012;PMS7003;12220;50.194;18.948;2023-07-13T05:29:08;3;3;3
24012;PMS7003;12220;50.194;18.948;2023-07-13T05:31:15;6;6;5
24012;PMS7003;12220;50.194;18.948;2023-07-13T05:33:17;5;5;4
24012;PMS7003;12220;50.194;18.948;2023-07-13T05:35:18;5;5;5
24012;PMS7003;12220;50.194;18.948;2023-07-13T05:37:20;5;5;4
24012;PMS7003;12220;50.194;18.948;2023-07-13T05:39:30;6;6;5
24012;PMS7003;12220;50.194;18.948;2023-07-13T05:41:31;5;5;5
24012;PMS7003;12220;50.194;18.948;2023-07-13T05:43:33;9;5;4
24012;PMS7003;12220;50.194;18.948;2023-07-13T05:45:34;4;4;4
24012;PMS7003;12220;50.194;18.948;2023-07-13T05:47:45;5;5;4
24012;PMS7003;12220;50.194;18.948;2023-07-13T05:49:46;6;4;4
24012;PMS7003;12220;50.194;18.948;2023-07-13T05:51:47;5;5;5
24012;PMS7003;12220;50.194;18.948;2023-07-13T05:53:49;3;3;2
24012;PMS7003;12220;50.194;18.948;2023-07-13T05:56:00;6;4;4
24012;PMS7003;12220;50.194;18.948;2023-07-13T05:58:01;6;6;5
24012;PMS7003;12220;50.194;18.948;2023-07-13T06:00:03;4;4;3
24012;PMS7003;12220;50.194;18.948;2023-07-13T06:02:05;9;7;5
24012;PMS7003;12220;50.194;18.948;2023-07-13T06:04:14;4;4;3
24012;PMS7003;12220;50.194;18.948;2023-07-13T06:06:16;3;3;3
24012;PMS7003;12220;50.194;18.948;2023-07-13T06:08:18;5;5;4
24012;PMS7003;12220;50.194;18.948;2023-07-13T06:10:19;5;5;4
24012;PMS7003;12220;50.194;18.948;2023-07-13T06:12:29;4;4;4
24012;PMS7003;12220;50.194;18.948;2023-07-13T06:14:30;7;7;6
24012;PMS7003;12220;50.194;18.948;2023-07-13T06:16:32;5;5;4
24012;PMS7003;12220;50.194;18.948;2023-07-13T06:18:33;7;5;3
24012;PMS7003;12220;50.194;18.948;2023-07-13T06:20:44;5;4;4
24012;PMS7003;12220;50.194;18.948;2023-07-13T06:22:45;6;6;5
24012;PMS7003;12220;50.194;18.948;2023-07-13T06:24:47;7;5;4
24012;PMS7003;12220;50.194;18.948;2023-07-13T06:26:48;5;5;4
24012;PMS7003;12220;50.194;18.948;2023-07-13T06:28:59;4;4;4
24012;PMS7003;12220;50.194;18.948;2023-07-13T06:31:00;7;5;4
24012;PMS7003;12220;50.194;18.948;2023-07-13T06:33:02;9;9;7
24012;PMS7003;12220;50.194;18.948;2023-07-13T06:35:04;4;4;3
24012;PMS7003;12220;50.194;18.948;2023-07-13T06:37:14;9;8;5
24012;PMS7003;12220;50.194;18.948;2023-07-13T06:39:15;7;7;7
24012;PMS7003;12220;50.194;18.948;2023-07-13T06:41:16;7;7;6
24012;PMS7003;12220;50.194;18.948;2023-07-13T06:43:18;6;6;5
24012;PMS7003;12220;50.194;18.948;2023-07-13T06:45:28;5;5;4
24012;PMS7003;12220;50.194;18.948;2023-07-13T06:47:30;6;5;5
24012;PMS7003;12220;50.194;18.948;2023-07-13T06:49:31;6;6;5
24012;PMS7003;12220;50.194;18.948;2023-07-13T06:51:33;5;5;5
24012;PMS7003;12220;50.194;18.948;2023-07-13T06:53:43;5;5;4
24012;PMS7003;12220;50.194;18.948;2023-07-13T06:55:45;5;5;5
24012;PMS7003;12220;50.194;18.948;2023-07-13T06:57:47;7;7;6
24012;PMS7003;12220;50.194;18.948;2023-07-13T06:59:48;7;7;6
24012;PMS7003;12220;50.194;18.948;2023-07-13T07:01:58;6;6;5
24012;PMS7003;12220;50.194;18.948;2023-07-13T07:04:00;7;6;6
24012;PMS7003;12220;50.194;18.948;2023-07-13T07:08:15;7;5;5
24012;PMS7003;12220;50.194;18.948;2023-07-13T07:10:17;6;6;4
24012;PMS7003;12220;50.194;18.948;2023-07-13T07:12:19;5;5;3
24012;PMS7003;12220;50.194;18.948;2023-07-13T07:14:21;6;6;5
24012;PMS7003;12220;50.194;18.948;2023-07-13T07:16:24;6;5;4
24012;PMS7003;12220;50.194;18.948;2023-07-13T07:18:28;5;5;5
24012;PMS7003;12220;50.194;18.948;2023-07-13T07:20:29;7;6;6
24012;PMS7003;12220;50.194;18.948;2023-07-13T07:22:33;8;7;7
24012;PMS7003;12220;50.194;18.948;2023-07-13T07:24:34;5;5;3
24012;PMS7003;12220;50.194;18.948;2023-07-13T07:26:42;7;7;6
24012;PMS7003;12220;50.194;18.948;2023-07-13T07:28:44;7;7;6
24012;PMS7003;12220;50.194;18.948;2023-07-13T07:30:45;5;5;4
24012;PMS7003;12220;50.194;18.948;2023-07-13T07:32:47;6;6;5
24012;PMS7003;12220;50.194;18.948;2023-07-13T07:34:58;6;6;6
24012;PMS7003;12220;50.194;18.948;2023-07-13T07:37:00;7;7;5
24012;PMS7003;12220;50.194;18.948;2023-07-13T07:39:02;5;5;4
24012;PMS7003;12220;50.194;18.948;2023-07-13T07:41:04;4;3;2
24012;PMS7003;12220;50.194;18.948;2023-07-13T07:43:12;5;5;3
24012;PMS7003;12220;50.194;18.948;2023-07-13T07:45:14;6;6;5
24012;PMS7003;12220;50.194;18.948;2023-07-13T07:47:15;8;6;5
24012;PMS7003;12220;50.194;18.948;2023-07-13T07:49:17;5;5;4
24012;PMS7003;12220;50.194;18.948;2023-07-13T07:51:27;5;5;4
24012;PMS7003;12220;50.194;18.948;2023-07-13T07:53:28;5;5;4
24012;PMS7003;12220;50.194;18.948;2023-07-13T07:55:29;6;6;5
24012;PMS7003;12220;50.194;18.948;2023-07-13T07:57:35;6;6;5
24012;PMS7003;12220;50.194;18.948;2023-07-13T07:59:41;4;4;4
24012;PMS7003;12220;50.194;18.948;2023-07-13T08:01:43;6;6;5
24012;PMS7003;12220;50.194;18.948;2023-07-13T08:03:48;7;7;6
24012;PMS7003;12220;50.194;18.948;2023-07-13T08:05:52;7;7;7
24012;PMS7003;12220;50.194;18.948;2023-07-13T08:07:56;8;8;6
24012;PMS7003;12220;50.194;18.948;2023-07-13T08:09:58;6;6;5
24012;PMS7003;12220;50.194;18.948;2023-07-13T08:11:59;6;6;5
24012;PMS7003;12220;50.194;18.948;2023-07-13T08:14:00;8;8;7
24012;PMS7003;12220;50.194;18.948;2023-07-13T08:16:11;9;9;7
24012;PMS7003;12220;50.194;18.948;2023-07-13T08:18:49;6;6;5
24012;PMS7003;12220;50.194;18.948;2023-07-13T08:20:51;8;8;7
24012;PMS7003;12220;50.194;18.948;2023-07-13T08:22:52;9;9;8
24012;PMS7003;12220;50.194;18.948;2023-07-13T08:25:04;7;7;6
24012;PMS7003;12220;50.194;18.948;2023-07-13T08:27:06;8;8;6
24012;PMS7003;12220;50.194;18.948;2023-07-13T08:29:07;10;9;8
24012;PMS7003;12220;50.194;18.948;2023-07-13T08:31:09;9;7;7
24012;PMS7003;12220;50.194;18.948;2023-07-13T08:33:20;9;8;7
24012;PMS7003;12220;50.194;18.948;2023-07-13T08:35:25;8;8;7
24012;PMS7003;12220;50.194;18.948;2023-07-13T08:37:26;9;9;8
24012;PMS7003;12220;50.194;18.948;2023-07-13T08:39:28;7;7;7
24012;PMS7003;12220;50.194;18.948;2023-07-13T08:41:34;9;9;8
24012;PMS7003;12220;50.194;18.948;2023-07-13T08:43:36;4;4;4
24012;PMS7003;12220;50.194;18.948;2023-07-13T08:45:42;9;9;8
24012;PMS7003;12220;50.194;18.948;2023-07-13T08:48:07;11;11;9
24012;PMS7003;12220;50.194;18.948;2023-07-13T08:50:02;13;10;9
24012;PMS7003;12220;50.194;18.948;2023-07-13T08:52:16;9;6;6
24012;PMS7003;12220;50.194;18.948;2023-07-13T08:56:53;8;8;7
24012;PMS7003;12220;50.194;18.948;2023-07-13T09:01:17;12;10;9
24012;PMS7003;12220;50.194;18.948;2023-07-13T09:03:24;11;11;10
24012;PMS7003;12220;50.194;18.948;2023-07-13T09:05:36;13;13;10
24012;PMS7003;12220;50.194;18.948;2023-07-13T09:07:50;7;7;5
24012;PMS7003;12220;50.194;18.948;2023-07-13T09:14:42;7;7;6
24012;PMS7003;12220;50.194;18.948;2023-07-13T09:16:47;10;10;8
24012;PMS7003;12220;50.194;18.948;2023-07-13T09:18:51;8;8;8
24012;PMS7003;12220;50.194;18.948;2023-07-13T09:23:14;8;7;6
24012;PMS7003;12220;50.194;18.948;2023-07-13T09:25:27;7;7;6
24012;PMS7003;12220;50.194;18.948;2023-07-13T09:27:42;8;6;6
24012;PMS7003;12220;50.194;18.948;2023-07-13T09:29:51;11;8;7
24012;PMS7003;12220;50.194;18.948;2023-07-13T09:32:01;10;10;8
24012;PMS7003;12220;50.194;18.948;2023-07-13T09:34:10;9;8;7
24012;PMS7003;12220;50.194;18.948;2023-07-13T09:36:23;18;16;13
24012;PMS7003;12220;50.194;18.948;2023-07-13T09:38:26;16;16;13
24012;PMS7003;12220;50.194;18.948;2023-07-13T09:40:35;14;14;12
24012;PMS7003;12220;50.194;18.948;2023-07-13T09:42:41;20;20;17
24012;PMS7003;12220;50.194;18.948;2023-07-13T09:46:56;18;17;14
24012;PMS7003;12220;50.194;18.948;2023-07-13T09:49:08;21;21;16
24012;PMS7003;12220;50.194;18.948;2023-07-13T09:51:14;25;21;17
24012;PMS7003;12220;50.194;18.948;2023-07-13T09:53:17;23;23;17
24012;PMS7003;12220;50.194;18.948;2023-07-13T09:55:26;17;17;15
24012;PMS7003;12220;50.194;18.948;2023-07-13T09:57:35;19;18;14
24012;PMS7003;12220;50.194;18.948;2023-07-13T09:59:44;15;15;11
24012;PMS7003;12220;50.194;18.948;2023-07-13T10:01:50;15;15;12
24012;PMS7003;12220;50.194;18.948;2023-07-13T10:03:52;13;12;9
24012;PMS7003;12220;50.194;18.948;2023-07-13T10:05:54;5;5;5
24012;PMS7003;12220;50.194;18.948;2023-07-13T10:08:14;7;7;6
24012;PMS7003;12220;50.194;18.948;2023-07-13T10:10:22;4;4;4
24012;PMS7003;12220;50.194;18.948;2023-07-13T10:12:24;5;5;5
24012;PMS7003;12220;50.194;18.948;2023-07-13T10:14:26;7;7;5
24012;PMS7003;12220;50.194;18.948;2023-07-13T10:16:28;11;9;8
24012;PMS7003;12220;50.194;18.948;2023-07-13T10:21:04;7;7;6
24012;PMS7003;12220;50.194;18.948;2023-07-13T10:23:20;8;6;5
24012;PMS7003;12220;50.194;18.948;2023-07-13T10:25:30;7;7;5
24012;PMS7003;12220;50.194;18.948;2023-07-13T10:27:34;7;7;6
24012;PMS7003;12220;50.194;18.948;2023-07-13T10:29:38;5;4;3
24012;PMS7003;12220;50.194;18.948;2023-07-13T10:31:44;5;5;5
24012;PMS7003;12220;50.194;18.948;2023-07-13T10:33:46;6;5;5
24012;PMS7003;12220;50.194;18.948;2023-07-13T10:35:49;4;4;4
24012;PMS7003;12220;50.194;18.948;2023-07-13T10:38:00;5;3;3
24012;PMS7003;12220;50.194;18.948;2023-07-13T10:40:12;4;4;4
24012;PMS7003;12220;50.194;18.948;2023-07-13T10:42:19;3;3;1
24012;PMS7003;12220;50.194;18.948;2023-07-13T10:44:36;2;2;2
24012;PMS7003;12220;50.194;18.948;2023-07-13T10:46:37;3;3;2
24012;PMS7003;12220;50.194;18.948;2023-07-13T10:48:39;2;2;2
24012;PMS7003;12220;50.194;18.948;2023-07-13T10:50:43;1;1;1
24012;PMS7003;12220;50.194;18.948;2023-07-13T10:52:52;1;1;1
24012;PMS7003;12220;50.194;18.948;2023-07-13T10:54:55;1;1;1
24012;PMS7003;12220;50.194;18.948;2023-07-13T11:01:27;1;1;0
24012;PMS7003;12220;50.194;18.948;2023-07-13T11:06:03;2;2;2
24012;PMS7003;12220;50.194;18.948;2023-07-13T11:12:53;1;1;1
24012;PMS7003;12220;50.194;18.948;2023-07-13T11:21:29;2;2;2
24012;PMS7003;12220;50.194;18.948;2023-07-13T11:23:33;2;2;2
24012;PMS7003;12220;50.194;18.948;2023-07-13T11:25:43;1;1;1
24012;PMS7003;12220;50.194;18.948;2023-07-13T11:27:46;2;2;1
24012;PMS7003;12220;50.194;18.948;2023-07-13T11:29:52;2;2;2
24012;PMS7003;12220;50.194;18.948;2023-07-13T11:32:00;3;3;3
24012;PMS7003;12220;50.194;18.948;2023-07-13T11:34:13;2;2;2
24012;PMS7003;12220;50.194;18.948;2023-07-13T11:36:16;2;2;2
24012;PMS7003;12220;50.194;18.948;2023-07-13T11:38:27;1;1;1
24012;PMS7003;12220;50.194;18.948;2023-07-13T11:40:35;3;1;1
24012;PMS7003;12220;50.194;18.948;2023-07-13T11:42:36;3;3;3
24012;PMS7003;12220;50.194;18.948;2023-07-13T11:44:41;1;1;1
24012;PMS7003;12220;50.194;18.948;2023-07-13T11:48:53;2;2;2
24012;PMS7003;12220;50.194;18.948;2023-07-13T11:50:59;2;2;2
24012;PMS7003;12220;50.194;18.948;2023-07-13T11:53:10;3;3;3
24012;PMS7003;12220;50.194;18.948;2023-07-13T11:55:15;2;2;2
24012;PMS7003;12220;50.194;18.948;2023-07-13T11:59:38;3;3;3
24012;PMS7003;12220;50.194;18.948;2023-07-13T12:01:45;2;2;2
24012;PMS7003;12220;50.194;18.948;2023-07-13T12:03:49;2;2;2
24012;PMS7003;12220;50.194;18.948;2023-07-13T12:05:55;3;3;2
24012;PMS7003;12220;50.194;18.948;2023-07-13T12:07:58;2;2;2
24012;PMS7003;12220;50.194;18.948;2023-07-13T12:10:00;1;1;1
24012;PMS7003;12220;50.194;18.948;2023-07-13T12:12:14;2;2;2
24012;PMS7003;12220;50.194;18.948;2023-07-13T12:14:24;3;2;2
24012;PMS7003;12220;50.194;18.948;2023-07-13T12:16:31;4;3;3
24012;PMS7003;12220;50.194;18.948;2023-07-13T12:18:33;4;4;3
24012;PMS7003;12220;50.194;18.948;2023-07-13T12:20:37;4;4;4
24012;PMS7003;12220;50.194;18.948;2023-07-13T12:22:40;1;1;1
24012;PMS7003;12220;50.194;18.948;2023-07-13T12:24:50;1;1;1
24012;PMS7003;12220;50.194;18.948;2023-07-13T12:26:58;5;2;2
24012;PMS7003;12220;50.194;18.948;2023-07-13T12:29:05;3;3;3
24012;PMS7003;12220;50.194;18.948;2023-07-13T12:31:19;2;2;2
24012;PMS7003;12220;50.194;18.948;2023-07-13T12:33:23;3;3;3
24012;PMS7003;12220;50.194;18.948;2023-07-13T12:35:30;1;1;1
24012;PMS7003;12220;50.194;18.948;2023-07-13T12:37:36;2;2;2
24012;PMS7003;12220;50.194;18.948;2023-07-13T12:39:47;2;2;1
24012;PMS7003;12220;50.194;18.948;2023-07-13T12:41:48;2;2;2
24012;PMS7003;12220;50.194;18.948;2023-07-13T12:44:02;2;2;2
24012;PMS7003;12220;50.194;18.948;2023-07-13T12:46:05;3;3;2
24012;PMS7003;12220;50.194;18.948;2023-07-13T12:48:16;1;1;1
24012;PMS7003;12220;50.194;18.948;2023-07-13T12:50:18;2;2;1
24012;PMS7003;12220;50.194;18.948;2023-07-13T12:52:29;3;2;2
24012;PMS7003;12220;50.194;18.948;2023-07-13T12:54:51;5;5;3
24012;PMS7003;12220;50.194;18.948;2023-07-13T12:57:03;6;6;5
24012;PMS7003;12220;50.194;18.948;2023-07-13T12:59:13;1;1;1
24012;PMS7003;12220;50.194;18.948;2023-07-13T13:01:23;3;3;3
24012;PMS7003;12220;50.194;18.948;2023-07-13T13:03:29;8;5;4
24012;PMS7003;12220;50.194;18.948;2023-07-13T13:05:37;4;4;4
24012;PMS7003;12220;50.194;18.948;2023-07-13T13:07:46;5;4;4
24012;PMS7003;12220;50.194;18.948;2023-07-13T13:09:47;6;6;5
24012;PMS7003;12220;50.194;18.948;2023-07-13T13:11:49;5;5;4
24012;PMS7003;12220;50.194;18.948;2023-07-13T13:13:52;4;4;3
24012;PMS7003;12220;50.194;18.948;2023-07-13T13:16:01;8;5;4
24012;PMS7003;12220;50.194;18.948;2023-07-13T13:20:21;4;4;4
24012;PMS7003;12220;50.194;18.948;2023-07-13T13:22:23;5;5;4
24012;PMS7003;12220;50.194;18.948;2023-07-13T13:24:26;6;6;6
24012;PMS7003;12220;50.194;18.948;2023-07-13T13:26:29;7;7;7
24012;PMS7003;12220;50.194;18.948;2023-07-13T13:28:33;7;7;7
24012;PMS7003;12220;50.194;18.948;2023-07-13T13:30:34;7;7;7
24012;PMS7003;12220;50.194;18.948;2023-07-13T13:32:39;9;9;8
24012;PMS7003;12220;50.194;18.948;2023-07-13T13:34:41;8;8;8
24012;PMS7003;12220;50.194;18.948;2023-07-13T13:36:43;9;8;7
24012;PMS7003;12220;50.194;18.948;2023-07-13T13:38:46;7;7;7
24012;PMS7003;12220;50.194;18.948;2023-07-13T13:40:52;6;5;4
24012;PMS7003;12220;50.194;18.948;2023-07-13T13:42:56;6;6;5
24012;PMS7003;12220;50.194;18.948;2023-07-13T13:44:58;6;6;6
24012;PMS7003;12220;50.194;18.948;2023-07-13T13:47:00;5;5;5
24012;PMS7003;12220;50.194;18.948;2023-07-13T13:51:29;5;5;5
24012;PMS7003;12220;50.194;18.948;2023-07-13T13:53:30;5;4;4
24012;PMS7003;12220;50.194;18.948;2023-07-13T13:55:32;3;3;3
24012;PMS7003;12220;50.194;18.948;2023-07-13T13:57:33;4;4;3
24012;PMS7003;12220;50.194;18.948;2023-07-13T13:59:46;3;1;1
24012;PMS7003;12220;50.194;18.948;2023-07-13T14:01:50;3;3;3
24012;PMS7003;12220;50.194;18.948;2023-07-13T14:03:52;3;3;3
24012;PMS7003;12220;50.194;18.948;2023-07-13T14:25:52;4;4;4
24012;PMS7003;12220;50.194;18.948;2023-07-13T14:27:55;4;4;4
24012;PMS7003;12220;50.194;18.948;2023-07-13T14:30:16;5;5;4
24012;PMS7003;12220;50.194;18.948;2023-07-13T14:32:19;4;4;3
24012;PMS7003;12220;50.194;18.948;2023-07-13T14:34:28;3;3;3
24012;PMS7003;12220;50.194;18.948;2023-07-13T14:36:31;2;2;2
24012;PMS7003;12220;50.194;18.948;2023-07-13T14:38:38;4;3;3
24012;PMS7003;12220;50.194;18.948;2023-07-13T14:40:40;4;4;4
24012;PMS7003;12220;50.194;18.948;2023-07-13T14:42:43;1;1;0
24012;PMS7003;12220;50.194;18.948;2023-07-13T14:44:44;4;4;4
24012;PMS7003;12220;50.194;18.948;2023-07-13T14:46:46;6;5;5
24012;PMS7003;12220;50.194;18.948;2023-07-13T14:48:49;5;5;5
24012;PMS7003;12220;50.194;18.948;2023-07-13T14:50:58;6;6;5
24012;PMS7003;12220;50.194;18.948;2023-07-13T14:53:00;4;4;3
24012;PMS7003;12220;50.194;18.948;2023-07-13T14:55:01;6;6;5
24012;PMS7003;12220;50.194;18.948;2023-07-13T14:57:03;2;2;2